createdAt,value
2022-11-23T00:01:37.742Z,5.82
2022-11-23T00:04:11.771Z,5.84
2022-11-23T00:06:40.902Z,5.80
2022-11-23T00:09:10.723Z,5.76
2022-11-23T00:11:38.582Z,5.77
2022-11-23T00:14:06.578Z,5.76
2022-11-23T00:16:34.496Z,5.77
2022-11-23T00:19:02.761Z,5.76
2022-11-23T00:21:32.635Z,5.73
2022-11-23T00:24:00.800Z,5.75
2022-11-23T00:26:28.704Z,5.74
2022-11-23T00:28:56.854Z,5.70
2022-11-23T00:31:28.089Z,5.72
2022-11-23T00:33:57.106Z,5.72
2022-11-23T00:36:27.649Z,5.72
2022-11-23T00:38:56.324Z,5.73
2022-11-23T00:41:26.324Z,5.72
2022-11-23T00:43:54.728Z,5.72
2022-11-23T00:46:27.864Z,5.69
2022-11-23T00:48:57.599Z,5.66
2022-11-23T00:51:32.265Z,5.72
2022-11-23T00:54:01.100Z,5.72
2022-11-23T00:56:30.132Z,5.71
2022-11-23T00:59:00.250Z,5.71
2022-11-23T01:01:34.215Z,5.75
2022-11-23T01:04:04.667Z,5.73
2022-11-23T01:06:34.918Z,5.75
2022-11-23T01:09:08.475Z,5.71
2022-11-23T01:11:36.454Z,5.74
2022-11-23T01:14:04.442Z,5.77
2022-11-23T01:16:35.844Z,5.79
2022-11-23T01:19:07.218Z,5.79
2022-11-23T01:21:35.977Z,5.82
2022-11-23T01:24:10.021Z,5.85
2022-11-23T01:26:41.022Z,5.88
2022-11-23T01:29:09.003Z,5.89
2022-11-23T01:31:43.190Z,5.87
2022-11-23T01:34:17.144Z,5.87
2022-11-23T01:36:46.037Z,5.84
2022-11-23T01:39:14.355Z,5.81
2022-11-23T01:41:45.109Z,5.79
2022-11-23T01:44:41.871Z,5.78
2022-11-23T01:47:10.727Z,5.77
2022-11-23T01:49:52.485Z,5.76
2022-11-23T01:52:24.686Z,5.78
2022-11-23T01:54:59.181Z,5.79
2022-11-23T01:57:35.194Z,5.81
2022-11-23T02:00:04.303Z,5.79
2022-11-23T02:02:49.762Z,5.80
2022-11-23T02:05:20.056Z,5.83
2022-11-23T02:07:50.041Z,5.79
2022-11-23T02:10:19.593Z,5.78
2022-11-23T02:12:47.558Z,5.79
2022-11-23T02:15:15.337Z,5.80
2022-11-23T02:17:44.451Z,5.78
2022-11-23T02:20:15.961Z,5.80
2022-11-23T02:23:45.285Z,5.81
2022-11-23T02:26:19.470Z,5.81
2022-11-23T02:29:10.967Z,5.79
2022-11-23T02:31:39.351Z,5.80
2022-11-23T02:34:07.324Z,5.82
2022-11-23T02:36:41.417Z,5.83
2022-11-23T02:39:12.708Z,5.78
2022-11-23T02:41:48.155Z,5.77
2022-11-23T02:44:48.373Z,5.80
2022-11-23T02:47:16.297Z,5.79
2022-11-23T02:49:47.748Z,5.79
2022-11-23T02:52:17.097Z,5.79
2022-11-23T02:54:44.960Z,5.78
2022-11-23T02:57:13.917Z,5.81
2022-11-23T02:59:44.750Z,5.82
2022-11-23T03:02:12.991Z,5.83
2022-11-23T03:04:41.569Z,5.83
2022-11-23T03:07:09.497Z,5.88
2022-11-23T03:09:37.397Z,5.91
2022-11-23T03:12:05.550Z,5.93
2022-11-23T03:14:33.975Z,5.95
2022-11-23T03:17:02.266Z,5.89
2022-11-23T03:19:34.527Z,5.87
2022-11-23T03:22:04.077Z,5.87
2022-11-23T03:24:32.639Z,5.85
2022-11-23T03:27:02.135Z,5.86
2022-11-23T03:29:30.483Z,5.90
2022-11-23T03:31:59.592Z,5.91
2022-11-23T03:34:27.523Z,5.93
2022-11-23T03:36:55.269Z,5.96
2022-11-23T03:39:23.132Z,5.99
2022-11-23T03:42:08.995Z,6.01
2022-11-23T03:44:37.168Z,6.00
2022-11-23T03:47:06.118Z,6.00
2022-11-23T03:49:35.072Z,6.00
2022-11-23T03:52:04.528Z,5.99
2022-11-23T03:54:32.553Z,6.02
2022-11-23T03:57:00.962Z,6.05
2022-11-23T03:59:29.011Z,6.03
2022-11-23T04:01:57.358Z,6.07
2022-11-23T04:04:28.040Z,6.07
2022-11-23T04:07:00.583Z,6.09
2022-11-23T04:09:33.303Z,6.08
2022-11-23T04:12:07.703Z,6.10
2022-11-23T04:14:37.180Z,6.11
2022-11-23T04:17:05.581Z,6.11
2022-11-23T04:19:34.162Z,6.13
2022-11-23T04:22:02.284Z,6.14
2022-11-23T04:24:33.900Z,6.15
2022-11-23T04:27:03.977Z,6.16
2022-11-23T04:29:32.226Z,6.18
2022-11-23T04:32:00.581Z,6.25
2022-11-23T04:34:28.579Z,6.24
2022-11-23T04:36:56.480Z,6.22
2022-11-23T04:39:30.590Z,6.20
2022-11-23T04:42:28.371Z,6.21
2022-11-23T04:44:59.054Z,6.23
2022-11-23T04:47:27.301Z,6.23
2022-11-23T04:49:55.729Z,6.18
2022-11-23T04:52:24.651Z,6.22
2022-11-23T04:54:52.600Z,6.22
2022-11-23T04:57:20.670Z,6.25
2022-11-23T04:59:50.030Z,6.34
2022-11-23T05:02:18.101Z,6.37
2022-11-23T05:04:53.047Z,6.40
2022-11-23T05:07:21.796Z,6.45
2022-11-23T05:09:54.896Z,6.52
2022-11-23T05:12:23.290Z,6.53
2022-11-23T05:14:51.469Z,6.58
2022-11-23T05:17:24.096Z,6.55
2022-11-23T05:19:53.908Z,6.55
2022-11-23T05:22:22.157Z,6.64
2022-11-23T05:24:51.839Z,6.71
2022-11-23T05:27:22.805Z,6.73
2022-11-23T05:29:51.264Z,6.75
2022-11-23T05:32:19.142Z,6.79
2022-11-23T05:34:47.062Z,6.84
2022-11-23T05:37:16.624Z,6.87
2022-11-23T05:39:52.379Z,6.85
2022-11-23T05:42:21.054Z,6.89
2022-11-23T05:44:49.084Z,6.89
2022-11-23T05:47:23.140Z,6.89
2022-11-23T05:49:51.052Z,6.87
2022-11-23T05:52:21.010Z,6.88
2022-11-23T05:54:48.964Z,6.87
2022-11-23T05:57:17.891Z,6.85
2022-11-23T05:59:46.637Z,6.88
2022-11-23T06:02:20.463Z,6.89
2022-11-23T06:04:50.395Z,6.87
2022-11-23T06:07:21.764Z,6.86
2022-11-23T06:10:07.517Z,6.87
2022-11-23T06:12:36.623Z,6.87
2022-11-23T06:15:05.422Z,6.87
2022-11-23T06:17:33.493Z,6.89
2022-11-23T06:20:09.018Z,6.89
2022-11-23T06:22:39.929Z,6.93
2022-11-23T06:25:09.560Z,6.95
2022-11-23T06:27:42.660Z,6.95
2022-11-23T06:30:16.914Z,6.97
2022-11-23T06:32:45.175Z,6.94
2022-11-23T06:35:13.043Z,6.90
2022-11-23T06:37:42.163Z,6.87
2022-11-23T06:40:12.169Z,6.88
2022-11-23T06:42:40.642Z,6.91
2022-11-23T06:45:25.689Z,6.89
2022-11-23T06:47:56.682Z,6.94
2022-11-23T06:50:24.939Z,6.92
2022-11-23T06:52:57.318Z,6.94
2022-11-23T06:55:34.486Z,6.98
2022-11-23T06:58:02.788Z,7.00
2022-11-23T07:00:30.811Z,7.03
2022-11-23T07:03:00.622Z,7.06
2022-11-23T07:05:32.290Z,7.10
2022-11-23T07:08:00.911Z,7.09
2022-11-23T07:10:29.298Z,7.15
2022-11-23T07:13:09.752Z,7.19
2022-11-23T07:15:38.975Z,7.25
2022-11-23T07:18:07.190Z,7.29
2022-11-23T07:20:35.978Z,7.34
2022-11-23T07:23:10.465Z,7.37
2022-11-23T07:25:41.355Z,7.40
2022-11-23T07:28:12.099Z,7.46
2022-11-23T07:30:40.081Z,7.48
2022-11-23T07:33:10.524Z,7.53
2022-11-23T07:35:40.731Z,7.55
2022-11-23T07:38:09.654Z,7.59
2022-11-23T07:40:39.310Z,7.62
2022-11-23T07:43:11.550Z,7.64
2022-11-23T07:45:39.423Z,7.67
2022-11-23T07:48:09.928Z,7.72
2022-11-23T07:50:40.204Z,7.74
2022-11-23T07:53:08.592Z,7.76
2022-11-23T07:55:36.907Z,7.80
2022-11-23T07:58:06.626Z,7.80
2022-11-23T08:00:34.512Z,7.80
2022-11-23T08:03:26.743Z,7.83
2022-11-23T08:05:50.525Z,7.85
2022-11-23T08:08:18.501Z,7.89
2022-11-23T08:10:52.629Z,7.92
2022-11-23T08:13:22.796Z,7.97
2022-11-23T08:15:55.360Z,7.97
2022-11-23T08:18:24.423Z,8.00
2022-11-23T08:20:52.396Z,8.02
2022-11-23T08:23:21.013Z,8.04
2022-11-23T08:25:48.918Z,8.05
2022-11-23T08:28:16.991Z,8.06
2022-11-23T08:30:45.872Z,8.09
2022-11-23T08:33:14.355Z,8.10
2022-11-23T08:35:43.457Z,8.13
2022-11-23T08:38:12.011Z,8.15
2022-11-23T08:40:40.464Z,8.17
2022-11-23T08:43:08.390Z,8.20
2022-11-23T08:45:36.612Z,8.21
2022-11-23T08:48:05.429Z,8.22
2022-11-23T08:50:35.287Z,8.24
2022-11-23T08:53:03.227Z,8.29
2022-11-23T08:55:31.277Z,8.32
2022-11-23T08:57:59.862Z,8.35
2022-11-23T09:00:28.572Z,8.40
2022-11-23T09:03:00.288Z,8.45
2022-11-23T09:05:30.330Z,8.53
2022-11-23T09:08:01.366Z,8.61
2022-11-23T09:10:29.276Z,8.69
2022-11-23T09:12:58.883Z,8.79
2022-11-23T09:15:26.873Z,8.85
2022-11-23T09:17:54.886Z,8.91
2022-11-23T09:20:23.064Z,8.98
2022-11-23T09:22:52.666Z,8.99
2022-11-23T09:25:22.370Z,8.96
2022-11-23T09:27:57.451Z,8.95
2022-11-23T09:30:26.596Z,8.96
2022-11-23T09:32:58.123Z,8.97
2022-11-23T09:35:26.467Z,8.96
2022-11-23T09:37:58.730Z,8.96
2022-11-23T09:40:39.124Z,8.95
2022-11-23T09:44:03.908Z,8.93
2022-11-23T09:46:41.904Z,8.95
2022-11-23T09:49:14.533Z,8.93
2022-11-23T09:51:44.716Z,8.90
2022-11-23T09:54:30.597Z,8.90
2022-11-23T09:57:01.988Z,8.88
2022-11-23T09:59:30.094Z,8.88
2022-11-23T10:01:59.004Z,8.91
2022-11-23T10:04:33.663Z,8.92
2022-11-23T10:07:25.995Z,8.94
2022-11-23T10:10:09.317Z,8.96
2022-11-23T10:13:04.786Z,9.00
2022-11-23T10:15:38.753Z,9.01
2022-11-23T10:18:18.881Z,9.02
2022-11-23T10:20:58.697Z,9.03
2022-11-23T10:23:32.672Z,9.04
2022-11-23T10:26:00.767Z,9.04
2022-11-23T10:28:32.553Z,9.03
2022-11-23T10:31:22.441Z,9.01
2022-11-23T10:34:12.839Z,9.03
2022-11-23T10:36:41.902Z,9.06
2022-11-23T10:39:21.341Z,9.12
2022-11-23T10:41:51.542Z,9.18
2022-11-23T10:44:35.007Z,9.23
2022-11-23T10:47:04.327Z,9.31
2022-11-23T10:49:35.086Z,9.39
2022-11-23T10:52:03.760Z,9.48
2022-11-23T10:54:47.199Z,9.56
2022-11-23T10:57:28.623Z,9.64
2022-11-23T11:00:01.668Z,9.70
2022-11-23T11:02:37.905Z,9.75
2022-11-23T11:05:35.440Z,9.81
2022-11-23T11:08:19.516Z,9.86
2022-11-23T11:10:52.156Z,9.90
2022-11-23T11:13:24.635Z,9.94
2022-11-23T11:16:06.426Z,9.98
2022-11-23T11:18:36.909Z,10.03
2022-11-23T11:21:24.551Z,10.03
2022-11-23T11:24:04.218Z,10.05
2022-11-23T11:26:35.123Z,10.06
2022-11-23T11:29:06.540Z,10.06
2022-11-23T11:31:53.055Z,10.05
2022-11-23T11:34:38.518Z,10.03
2022-11-23T11:37:19.802Z,10.01
2022-11-23T11:39:57.816Z,10.01
2022-11-23T11:42:43.493Z,10.00
2022-11-23T11:45:37.382Z,9.97
2022-11-23T11:48:14.902Z,9.95
2022-11-23T11:50:51.604Z,9.93
2022-11-23T11:53:25.448Z,9.92
2022-11-23T11:56:05.725Z,9.89
2022-11-23T11:58:41.760Z,9.87
2022-11-23T12:01:36.968Z,9.87
2022-11-23T12:04:26.267Z,9.87
2022-11-23T12:07:08.496Z,9.89
2022-11-23T12:09:41.024Z,9.91
2022-11-23T12:12:17.268Z,9.94
2022-11-23T12:14:47.246Z,9.97
2022-11-23T12:17:38.648Z,10.01
2022-11-23T12:20:21.454Z,10.05
2022-11-23T12:23:23.353Z,10.08
2022-11-23T12:26:20.641Z,10.14
2022-11-23T12:29:19.725Z,10.19
2022-11-23T12:31:59.358Z,10.25
2022-11-23T12:34:38.392Z,10.32
2022-11-23T12:38:00.449Z,10.40
2022-11-23T12:40:52.424Z,10.47
2022-11-23T12:43:40.571Z,10.52
2022-11-23T12:46:27.728Z,10.55
2022-11-23T12:49:09.718Z,10.59
2022-11-23T12:52:19.641Z,10.63
2022-11-23T12:54:59.459Z,10.64
2022-11-23T12:57:38.360Z,10.65
2022-11-23T13:00:14.951Z,10.67
2022-11-23T13:02:58.342Z,10.69
2022-11-23T13:05:48.566Z,10.69
2022-11-23T13:08:35.347Z,10.68
2022-11-23T13:11:09.448Z,10.66
2022-11-23T13:14:02.470Z,10.64
2022-11-23T13:16:54.790Z,10.62
2022-11-23T13:19:51.147Z,10.59
2022-11-23T13:22:21.077Z,10.56
2022-11-23T13:25:14.215Z,10.56
2022-11-23T13:27:50.341Z,10.53
2022-11-23T13:33:38.010Z,10.51
2022-11-23T13:36:15.346Z,10.51
2022-11-23T13:38:48.810Z,10.51
2022-11-23T13:41:34.973Z,10.52
2022-11-23T13:44:44.066Z,10.52
2022-11-23T13:47:16.135Z,10.52
2022-11-23T13:49:51.742Z,10.52
2022-11-23T13:52:22.770Z,10.52
2022-11-23T13:55:11.901Z,10.55
2022-11-23T13:57:42.322Z,10.56
2022-11-23T14:00:45.528Z,10.57
2022-11-23T14:03:48.152Z,10.58
2022-11-23T14:06:40.722Z,10.58
2022-11-23T14:09:08.538Z,10.58
2022-11-23T14:11:56.187Z,10.57
2022-11-23T14:14:30.972Z,10.56
2022-11-23T14:17:13.480Z,10.56
2022-11-23T14:19:41.444Z,10.57
2022-11-23T14:22:30.871Z,10.58
2022-11-23T14:25:36.371Z,10.59
2022-11-23T14:28:38.719Z,10.50
2022-11-23T14:31:23.071Z,10.45
2022-11-23T14:34:24.562Z,10.35
2022-11-23T14:37:15.737Z,10.21
2022-11-23T14:40:20.607Z,10.11
2022-11-23T14:42:54.759Z,10.01
2022-11-23T14:45:27.631Z,9.92
2022-11-23T14:47:55.697Z,9.85
2022-11-23T14:50:29.186Z,9.78
2022-11-23T14:52:59.135Z,9.66
2022-11-23T14:55:29.664Z,9.56
2022-11-23T14:58:02.546Z,9.48
2022-11-23T15:00:36.141Z,9.42
2022-11-23T15:03:48.631Z,9.35
2022-11-23T15:06:16.565Z,9.27
2022-11-23T15:09:11.262Z,9.22
2022-11-23T15:11:39.291Z,9.16
2022-11-23T15:14:26.882Z,9.11
2022-11-23T15:16:54.996Z,9.05
2022-11-23T15:19:29.988Z,9.04
2022-11-23T15:21:58.303Z,9.03
2022-11-23T15:24:27.242Z,9.03
2022-11-23T15:27:10.912Z,9.02
2022-11-23T15:29:40.360Z,9.02
2022-11-23T15:32:34.358Z,9.03
2022-11-23T15:35:07.919Z,9.01
2022-11-23T15:37:50.019Z,9.01
2022-11-23T15:40:19.653Z,9.02
2022-11-23T15:42:51.392Z,9.02
2022-11-23T15:45:56.130Z,9.04
2022-11-23T15:48:32.739Z,9.07
2022-11-23T15:51:03.867Z,9.09
2022-11-23T15:53:33.143Z,9.11
2022-11-23T15:56:04.885Z,9.13
2022-11-23T15:58:35.280Z,9.12
2022-11-23T16:01:12.292Z,9.10
2022-11-23T16:03:47.550Z,9.10
2022-11-23T16:06:19.909Z,9.08
2022-11-23T16:08:47.946Z,9.09
2022-11-23T16:11:31.718Z,9.09
2022-11-23T16:14:19.573Z,9.07
2022-11-23T16:16:59.365Z,9.03
2022-11-23T16:19:33.519Z,8.99
2022-11-23T16:22:07.777Z,8.98
2022-11-23T16:24:36.404Z,8.98
2022-11-23T16:27:15.386Z,8.97
2022-11-23T16:29:54.859Z,8.98
2022-11-23T16:32:30.180Z,9.01
2022-11-23T16:35:15.853Z,8.99
2022-11-23T16:37:44.787Z,9.00
2022-11-23T16:40:14.487Z,8.99
2022-11-23T16:42:43.142Z,8.98
2022-11-23T16:45:11.244Z,8.99
2022-11-23T16:47:54.245Z,8.97
2022-11-23T16:50:23.423Z,8.95
2022-11-23T16:52:51.632Z,8.92
2022-11-23T16:55:19.971Z,8.93
2022-11-23T16:57:49.405Z,8.89
2022-11-23T17:00:22.786Z,8.86
2022-11-23T17:02:51.100Z,8.85
2022-11-23T17:05:21.003Z,8.88
2022-11-23T17:07:48.941Z,8.86
2022-11-23T17:10:17.431Z,8.82
2022-11-23T17:12:54.700Z,8.78
2022-11-23T17:15:25.461Z,8.77
2022-11-23T17:17:53.437Z,8.79
2022-11-23T17:20:21.390Z,8.82
2022-11-23T17:22:51.990Z,8.86
2022-11-23T17:25:19.963Z,8.91
2022-11-23T17:27:48.281Z,8.96
2022-11-23T17:30:21.390Z,9.01
2022-11-23T17:32:49.981Z,9.05
2022-11-23T17:35:18.093Z,9.05
2022-11-23T17:37:47.049Z,9.05
2022-11-23T17:40:17.040Z,9.05
2022-11-23T17:42:45.461Z,9.05
2022-11-23T17:45:14.213Z,9.06
2022-11-23T17:47:44.699Z,9.06
2022-11-23T17:50:19.268Z,9.02
2022-11-23T17:52:48.407Z,9.00
2022-11-23T17:55:16.787Z,8.99
2022-11-23T17:57:44.667Z,9.00
2022-11-23T18:00:18.689Z,9.00
2022-11-23T18:02:47.591Z,9.01
2022-11-23T18:05:21.481Z,9.04
2022-11-23T18:07:53.082Z,9.01
2022-11-23T18:10:21.439Z,8.99
2022-11-23T18:12:49.508Z,8.99
2022-11-23T18:15:17.496Z,8.96
2022-11-23T18:17:45.412Z,8.96
2022-11-23T18:20:13.439Z,8.95
2022-11-23T18:22:41.630Z,8.95
2022-11-23T18:25:09.843Z,8.94
2022-11-23T18:27:38.018Z,8.92
2022-11-23T18:30:06.602Z,8.92
2022-11-23T18:32:34.591Z,8.92
2022-11-23T18:35:05.139Z,8.92
2022-11-23T18:37:33.176Z,8.92
2022-11-23T18:40:01.308Z,8.92
2022-11-23T18:42:29.294Z,8.92
2022-11-23T18:44:57.356Z,8.92
2022-11-23T18:47:25.207Z,8.91
2022-11-23T18:49:53.126Z,8.92
2022-11-23T18:52:24.126Z,8.91
2022-11-23T18:54:52.067Z,8.91
2022-11-23T18:57:20.067Z,8.90
2022-11-23T18:59:57.944Z,8.90
2022-11-23T19:02:27.040Z,8.89
2022-11-23T19:04:54.970Z,8.86
2022-11-23T19:07:27.174Z,8.83
2022-11-23T19:09:55.477Z,8.81
2022-11-23T19:12:23.747Z,8.80
2022-11-23T19:14:51.588Z,8.79
2022-11-23T19:17:19.718Z,8.76
2022-11-23T19:19:48.115Z,8.74
2022-11-23T19:22:16.084Z,8.72
2022-11-23T19:24:44.014Z,8.72
2022-11-23T19:27:11.936Z,8.70
2022-11-23T19:29:39.781Z,8.69
2022-11-23T19:32:07.849Z,8.70
2022-11-23T19:34:35.772Z,8.68
2022-11-23T19:37:03.810Z,8.65
2022-11-23T19:39:32.256Z,8.66
2022-11-23T19:42:00.510Z,8.65
2022-11-23T19:44:28.561Z,8.67
2022-11-23T19:46:56.539Z,8.67
2022-11-23T19:49:24.412Z,8.67
2022-11-23T19:51:53.770Z,8.69
2022-11-23T19:54:22.025Z,8.69
2022-11-23T19:56:51.018Z,8.68
2022-11-23T19:59:19.183Z,8.68
2022-11-23T20:01:47.114Z,8.68
2022-11-23T20:04:15.188Z,8.69
2022-11-23T20:06:43.398Z,8.67
2022-11-23T20:09:16.780Z,8.65
2022-11-23T20:11:50.300Z,8.63
2022-11-23T20:14:19.384Z,8.64
2022-11-23T20:16:48.003Z,8.65
2022-11-23T20:19:16.004Z,8.68
2022-11-23T20:21:43.959Z,8.68
2022-11-23T20:24:13.937Z,8.64
2022-11-23T20:26:42.848Z,8.63
2022-11-23T20:29:11.766Z,8.65
2022-11-23T20:31:39.964Z,8.64
2022-11-23T20:34:10.628Z,8.62
2022-11-23T20:36:41.206Z,8.61
2022-11-23T20:39:11.866Z,8.62
2022-11-23T20:41:39.923Z,8.64
2022-11-23T20:44:13.593Z,8.65
2022-11-23T20:49:31.486Z,8.66
2022-11-23T20:52:00.430Z,8.69
2022-11-23T20:54:29.091Z,8.68
2022-11-23T20:57:00.329Z,8.66
2022-11-23T20:59:29.534Z,8.65
2022-11-23T21:01:57.507Z,8.65
2022-11-23T21:04:25.753Z,8.64
2022-11-23T21:06:54.759Z,8.64
2022-11-23T21:09:22.716Z,8.66
2022-11-23T21:12:09.519Z,8.65
2022-11-23T21:14:37.729Z,8.64
2022-11-23T21:17:06.375Z,8.62
2022-11-23T21:19:39.602Z,8.61
2022-11-23T21:22:13.449Z,8.61
2022-11-23T21:24:41.908Z,8.61
2022-11-23T21:27:13.156Z,8.61
2022-11-23T21:29:41.153Z,8.61
2022-11-23T21:32:09.143Z,8.61
2022-11-23T21:34:37.408Z,8.60
2022-11-23T21:37:05.645Z,8.57
2022-11-23T21:39:33.639Z,8.53
2022-11-23T21:42:01.617Z,8.50
2022-11-23T21:44:29.736Z,8.48
2022-11-23T21:46:57.812Z,8.49
2022-11-23T21:49:27.931Z,8.50
2022-11-23T21:51:55.879Z,8.45
2022-11-23T21:54:23.887Z,8.39
2022-11-23T21:56:52.230Z,8.35
2022-11-23T21:59:20.239Z,8.35
2022-11-23T22:01:50.707Z,8.32
2022-11-23T22:04:19.217Z,8.30
2022-11-23T22:06:47.160Z,8.31
2022-11-23T22:09:15.156Z,8.30
2022-11-23T22:11:44.460Z,8.26
2022-11-23T22:14:14.781Z,8.26
2022-11-23T22:16:45.195Z,8.24
2022-11-23T22:19:15.126Z,8.22
2022-11-23T22:21:45.263Z,8.23
2022-11-23T22:24:18.005Z,8.23
2022-11-23T22:26:46.606Z,8.22
2022-11-23T22:29:15.106Z,8.20
2022-11-23T22:31:43.920Z,8.16
2022-11-23T22:34:13.673Z,8.13
2022-11-23T22:36:41.936Z,8.08
2022-11-23T22:39:10.394Z,8.05
2022-11-23T22:41:38.627Z,8.01
2022-11-23T22:44:09.539Z,7.95
2022-11-23T22:46:38.565Z,7.92
2022-11-23T22:49:06.645Z,7.90
2022-11-23T22:51:34.704Z,7.89
2022-11-23T22:54:03.169Z,7.84
2022-11-23T22:56:31.462Z,7.81
2022-11-23T22:59:00.203Z,7.83
2022-11-23T23:01:30.330Z,7.80
2022-11-23T23:04:01.614Z,7.77
2022-11-23T23:06:35.002Z,7.77
2022-11-23T23:09:05.334Z,7.75
2022-11-23T23:11:34.912Z,7.75
2022-11-23T23:14:03.012Z,7.78
2022-11-23T23:16:31.159Z,7.76
2022-11-23T23:18:59.956Z,7.74
2022-11-23T23:21:28.689Z,7.73
2022-11-23T23:23:59.882Z,7.70
2022-11-23T23:26:28.564Z,7.66
2022-11-23T23:28:58.159Z,7.58
2022-11-23T23:31:27.617Z,7.57
2022-11-23T23:33:55.593Z,7.51
2022-11-23T23:36:24.459Z,7.44
2022-11-23T23:38:53.279Z,7.43
2022-11-23T23:41:21.521Z,7.45
2022-11-23T23:43:49.491Z,7.44
2022-11-23T23:46:17.914Z,7.38
2022-11-23T23:48:46.195Z,7.37
2022-11-23T23:51:24.304Z,7.33
2022-11-23T23:53:52.730Z,7.27
2022-11-23T23:56:24.337Z,7.22
2022-11-23T23:58:54.557Z,7.19
